METAR Data
IDs: Format: Raw Decoded Include TAF

Data at: 2151 UTC 24 Mar 2019

KRYW 242135Z AUTO 21009KT 10SM SCT036 26/16 A3002 RMK AO2 T02580158
KRYW 242115Z AUTO 17007KT 120V180 10SM SCT036 26/16 A3003 RMK AO2 T02560161
KRYW 242055Z AUTO 18008KT 10SM SCT034 25/16 A3003 RMK AO2 T02480158
KRYW 242035Z AUTO 18008KT 150V230 10SM BKN032 26/16 A3004 RMK AO2 T02550163
KRYW 242015Z AUTO 19010KT 10SM BKN030 25/16 A3005 RMK AO2 T02480160
KRYW 241955Z AUTO 23008G15KT 180V240 10SM BKN028 24/16 A3005 RMK AO2 T02430161
KRYW 241935Z AUTO 20007KT 10SM BKN028 24/16 A3006 RMK AO2 T02410162
KRYW 241915Z AUTO 18009KT 10SM BKN026 24/16 A3007 RMK AO2 T02410163
KRYW 241855Z AUTO 21006KT 10SM OVC026 24/16 A3008 RMK AO2 T02360164
KRYW 241835Z AUTO 23004KT 10SM OVC026 23/16 A3009 RMK AO2 T02260161
KRYW 241815Z AUTO 21007KT 10SM OVC024 22/16 A3010 RMK AO2 T02200162
KRYW 241755Z AUTO 22006G15KT 10SM OVC024 22/16 A3010 RMK AO2 T02150159 10218 20170
KRYW 241735Z AUTO 21006KT 10SM BKN017 OVC024 21/16 A3011 RMK AO2 T02130164
KRYW 241715Z AUTO 22006KT 10SM OVC017 20/16 A3011 RMK AO2 T02030162
KRYW 241655Z AUTO 21007KT 10SM SCT015 OVC019 20/16 A3011 RMK AO2 T02040162
KRYW 241635Z AUTO 23007KT 10SM OVC016 20/17 A3012 RMK AO2 T02020165
KRYW 241615Z AUTO 22008KT 10SM OVC016 20/16 A3012 RMK AO2 T01980162
KRYW 241555Z AUTO 21007KT 10SM OVC014 19/16 A3012 RMK AO2 T01940163
KRYW 241535Z AUTO 21009KT 10SM OVC012 19/17 A3012 RMK AO2 T01910165
KRYW 241515Z AUTO 21006KT 10SM OVC012 19/16 A3011 RMK AO2 T01900163
KRYW 241455Z AUTO 21006KT 10SM OVC012 19/16 A3011 RMK AO2 T01870164
KRYW 241435Z AUTO 19006KT 10SM OVC014 19/17 A3011 RMK AO2 T01850165
KRYW 241415Z AUTO 19006KT 10SM OVC014 18/17 A3011 RMK AO2 T01810165
KRYW 241355Z AUTO 20006KT 10SM OVC012 18/17 A3010 RMK AO2 T01780165
KRYW 241335Z AUTO 19005KT 10SM OVC014 18/17 A3010 RMK AO2 T01760166
KRYW 241315Z AUTO 19005KT 10SM SCT004 OVC015 17/17 A3009 RMK AO2 T01730167
KRYW 241255Z AUTO 18006KT 7SM BKN004 OVC017 17/17 A3009 RMK AO2 T01710167
KRYW 241235Z AUTO 17005KT 7SM BKN004 OVC008 17/17 A3007 RMK AO2 T01700166
KRYW 241215Z AUTO 17004KT 7SM BKN004 OVC008 17/17 A3007 RMK AO2 T01710166
KRYW 241155Z AUTO 18004KT 7SM BKN004 OVC008 17/17 A3007 RMK AO2 T01710166 10181 20170
KRYW 241135Z AUTO 18005KT 10SM BKN004 OVC011 17/17 A3006 RMK AO2 T01710165
KRYW 241115Z AUTO 17006KT 10SM SCT004 BKN011 OVC016 17/17 A3006 RMK AO2 T01710165
KRYW 241055Z AUTO 18006KT 10SM -DZ SCT004 BKN013 OVC019 17/17 A3006 RMK AO2 T01700165
KRYW 241035Z AUTO 18004KT 10SM OVC013 18/17 A3006 RMK AO2 T01750165
KRYW 241015Z AUTO 18006KT 10SM OVC015 18/17 A3006 RMK AO2 T01750165
KRYW 240955Z AUTO 18005KT 10SM OVC015 18/16 A3007 RMK AO2 T01750163
KRYW 240935Z AUTO 18005KT 10SM BKN012 OVC020 18/16 A3006 RMK AO2 T01760163
KRYW 240915Z AUTO 19005KT 10SM OVC012 18/16 A3006 RMK AO2 T01770162
KRYW 240855Z AUTO 19005KT 10SM OVC012 18/16 A3006 RMK AO2 T01780162
KRYW 240835Z AUTO 19007KT 10SM OVC012 18/16 A3006 RMK AO2 T01800161
KRYW 240815Z AUTO 19007KT 10SM OVC012 18/16 A3007 RMK AO2 T01800161
KRYW 240755Z AUTO 19006KT 10SM OVC012 18/16 A3007 RMK AO2 T01800161
KRYW 240735Z AUTO 18007KT 10SM OVC012 18/16 A3007 RMK AO2 T01800161
KRYW 240715Z AUTO 18003KT 10SM OVC012 18/16 A3007 RMK AO2 T01770161
KRYW 240655Z AUTO 17005KT 10SM OVC012 18/16 A3008 RMK AO2 T01750162
KRYW 240635Z AUTO 18008KT 10SM RA OVC012 18/16 A3007 RMK AO2 T01790161
KRYW 240615Z AUTO 18007KT 10SM OVC012 18/16 A3008 RMK AO2 T01810160
KRYW 240555Z AUTO 18008KT 10SM OVC012 18/16 A3008 RMK AO2 T01800160 10204 20180 402150148
KRYW 240535Z AUTO 17005KT 10SM OVC012 18/16 A3008 RMK AO2 T01810160
KRYW 240515Z AUTO 18008KT 10SM OVC012 18/16 A3007 RMK AO2 T01810160
KRYW 240455Z AUTO 17009G17KT 120V190 10SM OVC012 18/16 A3007 RMK AO2 T01830160
KRYW 240435Z AUTO 18005G16KT 10SM OVC014 18/16 A3007 RMK AO2 T01830159
KRYW 240415Z AUTO 16006G17KT 10SM OVC014 19/16 A3007 RMK AO2 T01850157
KRYW 240355Z AUTO 16009G15KT 10SM OVC016 19/16 A3007 RMK AO2 T01870156
KRYW 240335Z AUTO 17006KT 10SM OVC018 19/16 A3007 RMK AO2 T01870157
KRYW 240315Z AUTO 16006KT 10SM OVC020 19/16 A3007 RMK AO2 T01850158
KRYW 240255Z AUTO 16006KT 10SM BKN022 OVC035 18/16 A3007 RMK AO2 T01830158
KRYW 240235Z AUTO 16005KT 10SM SCT022 SCT035 BKN042 18/16 A3007 RMK AO2 T01820158
KRYW 240215Z AUTO 17006KT 10SM SCT031 OVC040 19/16 A3006 RMK AO2 T01860158
KRYW 240155Z AUTO 18006KT 10SM OVC029 19/16 A3007 RMK AO2 T01900157
KRYW 240135Z AUTO 19006KT 10SM -RA SCT021 OVC029 19/16 A3006 RMK AO2 T01940155
KRYW 240115Z AUTO 18006KT 10SM SCT021 OVC029 20/15 A3006 RMK AO2 T01950152
KRYW 240055Z AUTO 18005KT 10SM OVC029 20/15 A3006 RMK AO2 T01970150
KRYW 240035Z AUTO 19009KT 10SM SCT031 OVC037 20/15 A3005 RMK AO2 T01950154
KRYW 240015Z AUTO 17006G14KT 10SM BKN025 BKN030 OVC039 20/16 A3004 RMK AO2 T01990155
KRYW 232355Z AUTO 18006G17KT 10SM OVC029 21/15 A3004 RMK AO2 T02050153 10215 20187
KRYW 232335Z AUTO 17005KT 10SM OVC029 21/16 A3003 RMK AO2 T02060155
KRYW 232315Z AUTO 17007G18KT 150V210 10SM OVC027 21/15 A3003 RMK AO2 T02080151
KRYW 232255Z AUTO 18005G14KT 10SM OVC027 21/15 A3002 RMK AO2 T02070151
KRYW 232235Z AUTO 17009G14KT 10SM OVC029 21/15 A3002 RMK AO2 T02060151
KRYW 232215Z AUTO 17007KT 10SM OVC031 21/15 A3003 RMK AO2 T02080150
KRYW 232155Z AUTO 17004KT 10SM BKN029 OVC041 21/15 A3003 RMK AO2 T02100152
KRYW 232135Z AUTO 16007KT 120V190 10SM SCT034 BKN041 OVC047 21/16 A3004 RMK AO2 T02130155
KRYW 232115Z AUTO 17009G14KT 10SM SCT024 SCT030 OVC040 20/15 A3004 RMK AO2 T02030154
KRYW 232055Z AUTO 16006KT 10SM SCT023 OVC027 20/15 A3005 RMK AO2 T02030153
KRYW 232035Z AUTO 17003KT 10SM OVC029 20/16 A3005 RMK AO2 LTG DSNT NE T02020156
KRYW 232015Z AUTO 17004KT 10SM -RA OVC029 20/16 A3006 RMK AO2 T02010155
KRYW 231955Z AUTO 18007KT 10SM OVC027 20/16 A3006 RMK AO2 T02010155
KRYW 231935Z AUTO 18006KT 10SM OVC029 20/15 A3007 RMK AO2 T02000153
KRYW 231915Z AUTO 16008KT 10SM BKN026 OVC034 20/15 A3007 RMK AO2 T02010152
KRYW 231855Z AUTO 17004KT 10SM BKN026 OVC032 20/15 A3008 RMK AO2 T02010150
KRYW 231835Z AUTO 18005KT 10SM BKN024 OVC030 20/16 A3009 RMK AO2 T02020155
KRYW 231815Z AUTO 17006KT 10SM SCT021 OVC030 19/15 A3010 RMK AO2 T01940153
KRYW 231755Z AUTO 18005KT 10SM BKN018 OVC024 19/15 A3011 RMK AO2 T01900152 10194 20150
KRYW 231735Z AUTO 17004KT 10SM OVC016 19/15 A3011 RMK AO2 T01870151
KRYW 231715Z AUTO 18006KT 10SM OVC016 19/15 A3011 RMK AO2 T01870150
KRYW 231655Z AUTO 18007KT 10SM OVC016 18/15 A3011 RMK AO2 T01830149
KRYW 231635Z AUTO 17008G15KT 10SM OVC016 19/15 A3011 RMK AO2 T01850147
KRYW 231615Z AUTO 16006KT 110V170 10SM BKN014 OVC021 19/15 A3010 RMK AO2 T01920149
KRYW 231555Z AUTO 16007KT 10SM OVC012 18/15 A3010 RMK AO2 LTG DSNT N T01810146
KRYW 231535Z AUTO 17005KT 10SM BKN012 OVC042 18/15 A3010 RMK AO2 T01800145
KRYW 231515Z AUTO 16006KT 10SM OVC012 17/14 A3010 RMK AO2 LTG DSNT NE T01740143
KRYW 231455Z AUTO 16005KT 10SM OVC012 17/14 A3011 RMK AO2 LTG DSNT N T01660140
KRYW 231435Z AUTO 14005KT 10SM SCT014 OVC037 16/14 A3010 RMK AO2 LTG DSNT N T01610137
KRYW 231415Z AUTO 14006KT 10SM SCT014 OVC035 16/14 A3010 RMK AO2 LTG DSNT N T01580136
KRYW 231355Z AUTO 14005KT 10SM OVC014 16/14 A3010 RMK AO2 LTG DSNT NE T01560135
KRYW 231335Z AUTO 14005KT 10SM BKN016 OVC043 15/13 A3009 RMK AO2 T01530131
KRYW 231315Z AUTO 16003KT 10SM SCT016 BKN044 OVC050 15/13 A3009 RMK AO2 LTG DSNT NE T01510130
KRYW 231255Z AUTO 15004KT 10SM SCT016 OVC050 15/13 A3008 RMK AO2 T01500126
KRYW 231235Z AUTO 14004KT 10SM OVC016 15/13 A3007 RMK AO2 T01510125
KRYW 231215Z AUTO 15003KT 10SM OVC016 15/12 A3007 RMK AO2 T01510123
KRYW 231155Z AUTO 00000KT 10SM OVC016 15/12 A3007 RMK AO2 T01510123 10167 20148
KRYW 231135Z AUTO 17003KT 10SM BKN016 OVC041 15/12 A3006 RMK AO2 T01500121
KRYW 231115Z AUTO 16004KT 10SM BKN016 OVC041 15/12 A3004 RMK AO2 LTG DSNT NE T01510120
KRYW 231055Z AUTO 18005KT 10SM OVC016 15/12 A3004 RMK AO2 T01500120
KRYW 231035Z AUTO 18005KT 10SM BKN016 15/12 A3003 RMK AO2 T01520118
KRYW 231015Z AUTO 17005KT 10SM CLR 15/12 A3002 RMK AO2 T01520117
KRYW 230955Z AUTO 16006KT 10SM SCT060 15/12 A3001 RMK AO2 T01530115